メインページ
METAR-TAF:

METAR-TAF

空港 :

ポートオブスペイン, Trinidad, トリニダード・トバゴ

緯度: 10-37N, 経度: 061-21W, 海抜: 12m

現時点の気象観測

当レポートは25分前の17:00(UTC)に作成
の風 9kt
気温 35°C
湿度 47%
気圧 1011 hPa
視程10km以上
高度2500ftの雲はほとんどない
近辺でにわか雨

METAR: TTPP 231700Z 08009KT 9999 VCSH FEW025 35/22 Q1011 NOSIG RMK SHWRS-N NNW W WSW

時間: 13:25 (17:25 UTC)

予報

当レポートは7時間25分前の10:00(UTC)に作成
予報は23日の 12時(UTC)から 24日の 12時(UTC)まで有効
東/南東の風 10kt
高度2200ftの雲は散在している
確率 30% :
23日の 16時(UTC)から 23日の 19時(UTC)まで一時的に
視程: 8000m
高度1200ftの雲はほとんどない, 積乱雲.
高度1800ftの雲は散在している
近辺でにわか雨, にわか雨
23日の 23時(UTC)から 24日の 02時(UTC)まで徐々に
の風 kt
高度1800ftの雲はほとんどない
確率 30% :
24日の 08時(UTC)から 24日の 12時(UTC)まで一時的に
視程: 6000m
高度1600ftの雲は散在している
にわか雨

TAF: TTPP 231000Z 2312/2412 11010KT SCT022 PROB30 TEMPO 2316/2319 8000 VCSH SHRA FEW012CB SCT018 BECMG 2323/2402 00000KT FEW018 PROB30 TEMPO 2408/2412 6000 SHRA SCT016

4,000以上の空港の気象観測と天気予報(METAR報とTAF報)

利用可能な観測所は地図上に黄色い丸と赤い丸で示す。

丸の上にカーソルを重ねると観測所名を参照できる。

次にクリックすると気象観測と天気予報を参照できる。

マップの切り替え:黒色「×」印の緑ボタンをクリックして拡大、「-」印の緑ボタンをクリックして縮小、緑色の三角印をクリックして隣りの地図に切り替え


METAR-TAF: